Nearby METAR Reports

 

EGMC - Southend-On-Sea, United Kingdom
Distance from station: NE 10km
Updated: 20/01/2020 19:50
Clear
Clear
 Wind from calm
Wind: Calm
Temperature: 0°C
Dew Point: -1°C
Humidity: 93%
Barometer: 1045 hPa
Summary: Clear
Visibility: greater than 7 miles , 10 km
2020/01/20 19:50 EGMC 201950Z 00000KT CAVOK 00/M01 Q1045
EGLC - London City Airp, United Kingdom
Distance from station: W 37km
Updated: 20/01/2020 19:50
Clear
Clear
 Wind from varies
Wind: varies 3 mph , 6 km/h
Temperature: 5°C
Dew Point: 1°C
Humidity: 76%
Barometer: 1046 hPa
Clouds: Clear
Visibility: 6 miles , 10 km
2020/01/20 19:50 EGLC 201950Z AUTO VRB03KT 9999 NCD 05/01 Q1046
EGKB - Biggin Hill, United Kingdom
Distance from station: WSW 45km
Updated: 20/01/2020 19:50
Clear
Clear
 Wind from WSW
Wind: WSW 5 mph , 7 km/h
Temperature: 3°C
Wind Chill: 1°C
Dew Point: -1°C
Humidity: 75%
Barometer: 1045 hPa
Summary: Clear
Visibility: greater than 7 miles , 10 km
2020/01/20 19:50 EGKB 201950Z 24004KT CAVOK 03/M01 Q1045
 
EGSS - Stansted Airport, United Kingdom
Distance from station: NNW 48km
Updated: 20/01/2020 19:50
Clear
Clear
 Wind from W
Wind: W 2 mph , 4 km/h
Temperature: 3°C
Dew Point: 1°C
Humidity: 87%
Barometer: 1045 hPa
Clouds: Clear
Visibility: 6 miles , 10 km
2020/01/20 19:50 EGSS 201950Z AUTO 27002KT 9999 NCD 03/01 Q1045
EGKK - London/Gatwick A, United Kingdom
Distance from station: SW 67km
Updated: 20/01/2020 19:50
Clear
Clear
 Wind from E
Wind: E 1 mph , 2 km/h
Temperature: 0°C
Dew Point: -1°C
Humidity: 93%
Barometer: 1045 hPa
Summary: Clear
Visibility: greater than 7 miles , 10 km
2020/01/20 19:50 EGKK 201950Z 09001KT CAVOK M00/M01 Q1045
EGMD - Lydd Airport, United Kingdom
Distance from station: SSE 67km
Updated: 20/01/2020 19:50
Clear
Clear
 Wind from varies
Wind: varies 1 mph , 2 km/h
Temperature: 2°C
Dew Point: 2°C
Humidity: 100%
Barometer: 1046 hPa
Clouds: Clear
Visibility: 6 miles , 10 km
2020/01/20 19:50 EGMD 201950Z AUTO VRB01KT 9999 NCD 02/02 Q1046
 
EGWU - Northolt Raf, United Kingdom
Distance from station: W 69km
Updated: 20/01/2020 19:50
Haze, Clear
Haze, Clear
 Wind from NW
Wind: NW 5 mph , 7 km/h
Temperature: 1°C
Wind Chill: -2°C
Dew Point: 0°C
Humidity: 93%
Barometer: 1045 hPa
Summary: Haze
Clouds: Clear
Visibility: 6 miles , 9 km
2020/01/20 19:50 EGWU 201950Z 31004KT 9000 HZ SKC 01/M00 Q1045 RMK BLU
EGLL - London/Heathrow, United Kingdom
Distance from station: W 72km
Updated: 20/01/2020 19:50
Clear
Clear
 Wind from WNW
Wind: WNW 3 mph , 6 km/h
Temperature: 2°C
Dew Point: 1°C
Humidity: 93%
Barometer: 1045 hPa
Summary: Clear
Visibility: greater than 7 miles , 10 km
2020/01/20 19:50 EGLL 201950Z 30003KT CAVOK 02/01 Q1045
EGUW - Wattisham Raf, United Kingdom
Distance from station: NNE 72km
Updated: 20/01/2020 19:50
Clear
Clear
 Wind from W
Wind: W 6 mph , 9 km/h
Temperature: 0°C
Wind Chill: -3°C
Dew Point: 0°C
Humidity: 100%
Barometer: 1045 hPa
Summary: Clear
Visibility: greater than 7 miles , 10 km
2020/01/20 19:50 EGUW 201950Z 26005KT CAVOK 00/M00 Q1045 NOSIG RMK BLU BLU
 
EGGW - Luton Airport, United Kingdom
Distance from station: WNW 76km
Updated: 20/01/2020 19:50
Clear
Clear
 Wind from W
Wind: W 8 mph , 13 km/h
Temperature: 1°C
Wind Chill: -3°C
Dew Point: -1°C
Humidity: 87%
Barometer: 1044 hPa
Clouds: Clear
Visibility: 6 miles , 10 km
2020/01/20 19:50 EGGW 201950Z AUTO 27007KT 9999 NCD 01/M01 Q1044
EGSC - Cambridge, United Kingdom
Distance from station: NNW 81km
Updated: 20/01/2020 17:50
NOT Current
Clear
Clear
 Wind from SW
Wind: SW 6 mph , 9 km/h
Temperature: 3°C
Wind Chill: 0°C
Dew Point: 2°C
Humidity: 93%
Barometer: 1045 hPa
Summary: Clear
Visibility: greater than 7 miles , 10 km
2020/01/20 17:50 EGSC 201750Z 23005KT CAVOK 03/02 Q1045